Time;durP1;ratioP1;P1;durP2;ratioP2;P2;SDS_P1;SDS_P2;PMS_P1;PMS_P2;Temp;Humidity;BMP_temperature;BMP_pressure;BME280_temperature;BME280_humidity;BME280_pressure;Samples;Min_cycle;Max_cycle;Signal;HPM_P1;HPM_P2
2021/08/26 00:06:48;;;;;;;11.85;7.68;;;;;;;;;;5075254;28;20438;-76
2021/08/26 00:09:16;;;;;;;11.05;7.80;;;;;;;;;;5074396;28;20488;-77
2021/08/26 00:11:44;;;;;;;10.70;6.28;;;;;;;;;;5074578;28;20028;-76
2021/08/26 00:14:10;;;;;;;12.32;8.30;;;;;;;;;;5074543;28;20016;-77
2021/08/26 00:16:40;;;;;;;12.45;7.32;;;;;;;;;;5074493;28;20158;-77
2021/08/26 00:19:06;;;;;;;13.65;7.72;;;;;;;;;;5074079;28;20051;-76
2021/08/26 00:21:32;;;;;;;10.88;7.10;;;;;;;;;;5074905;28;20028;-77
2021/08/26 00:23:58;;;;;;;9.90;7.65;;;;;;;;;;5073043;28;20105;-77
2021/08/26 00:26:24;;;;;;;10.68;7.05;;;;;;;;;;5074279;28;20052;-77
2021/08/26 00:28:50;;;;;;;12.40;7.13;;;;;;;;;;5074426;28;20456;-76
2021/08/26 00:31:16;;;;;;;13.25;7.35;;;;;;;;;;5074446;28;20030;-76
2021/08/26 00:33:42;;;;;;;12.77;7.78;;;;;;;;;;5074396;28;20384;-77
2021/08/26 00:36:08;;;;;;;11.25;7.05;;;;;;;;;;5074092;28;20035;-75
2021/08/26 00:38:34;;;;;;;12.10;7.60;;;;;;;;;;5074554;28;20078;-76
2021/08/26 00:41:00;;;;;;;12.68;7.78;;;;;;;;;;5074064;28;20036;-77
2021/08/26 00:43:31;;;;;;;14.85;7.53;;;;;;;;;;5074220;28;20061;-77
2021/08/26 00:45:58;;;;;;;12.10;7.20;;;;;;;;;;5073904;28;20365;-77
2021/08/26 00:48:24;;;;;;;10.95;6.60;;;;;;;;;;5073862;28;20027;-77
2021/08/26 00:50:54;;;;;;;11.77;7.60;;;;;;;;;;5074040;28;20060;-75
2021/08/26 00:53:21;;;;;;;11.13;7.18;;;;;;;;;;5074344;28;20021;-77
2021/08/26 00:55:47;;;;;;;10.10;6.97;;;;;;;;;;5072470;28;20029;-77
2021/08/26 00:58:13;;;;;;;11.15;7.40;;;;;;;;;;5073684;28;20028;-77
2021/08/26 01:00:41;;;;;;;13.13;7.82;;;;;;;;;;5073946;28;20532;-76
2021/08/26 01:03:07;;;;;;;11.93;7.32;;;;;;;;;;5073909;28;20024;-77
2021/08/26 01:05:51;;;;;;;11.93;7.15;;;;;;;;;;5073593;28;20024;-77
2021/08/26 01:08:22;;;;;;;8.88;6.85;;;;;;;;;;5073831;28;20027;-76
2021/08/26 01:10:54;;;;;;;15.48;8.40;;;;;;;;;;5073621;28;20517;-76
2021/08/26 01:13:20;;;;;;;12.73;7.47;;;;;;;;;;5073795;28;20388;-77
2021/08/26 01:16:03;;;;;;;12.32;8.32;;;;;;;;;;5073408;28;20017;-77
2021/08/26 01:18:30;;;;;;;9.52;6.78;;;;;;;;;;5073261;28;20041;-77
2021/08/26 01:20:56;;;;;;;10.43;8.00;;;;;;;;;;5072840;28;20032;-77
2021/08/26 01:23:23;;;;;;;12.30;9.13;;;;;;;;;;5073773;28;20021;-77
2021/08/26 01:25:50;;;;;;;9.45;7.60;;;;;;;;;;5073336;28;20055;-77
2021/08/26 01:28:16;;;;;;;11.02;7.15;;;;;;;;;;5073610;28;20047;-77
2021/08/26 01:30:43;;;;;;;13.73;8.32;;;;;;;;;;5073182;28;20040;-76
2021/08/26 01:33:09;;;;;;;10.38;7.18;;;;;;;;;;5073546;28;20078;-75
2021/08/26 01:35:35;;;;;;;10.80;8.05;;;;;;;;;;5073250;28;20028;-77
2021/08/26 01:38:01;;;;;;;12.18;7.57;;;;;;;;;;5071917;28;20027;-77
2021/08/26 01:40:40;;;;;;;12.93;7.88;;;;;;;;;;5073495;28;20469;-77
2021/08/26 01:43:10;;;;;;;13.65;8.13;;;;;;;;;;5073725;28;20025;-75
2021/08/26 01:45:37;;;;;;;11.97;8.00;;;;;;;;;;5073218;28;20029;-77
2021/08/26 01:48:03;;;;;;;11.30;7.57;;;;;;;;;;5073141;28;20259;-77
2021/08/26 01:50:29;;;;;;;12.90;7.85;;;;;;;;;;5073298;28;20025;-77
2021/08/26 01:52:55;;;;;;;10.75;7.88;;;;;;;;;;5073329;28;20055;-76
2021/08/26 01:55:21;;;;;;;12.82;7.65;;;;;;;;;;5073067;28;20078;-77
2021/08/26 01:57:48;;;;;;;10.80;7.53;;;;;;;;;;5073025;28;20021;-77
2021/08/26 02:00:14;;;;;;;12.75;7.75;;;;;;;;;;5073013;28;20492;-77
2021/08/26 02:02:40;;;;;;;12.13;8.93;;;;;;;;;;5073277;28;20029;-78
2021/08/26 02:05:07;;;;;;;11.25;7.88;;;;;;;;;;5073046;28;20028;-77
2021/08/26 02:07:33;;;;;;;9.73;7.95;;;;;;;;;;5071627;28;20025;-77
2021/08/26 02:09:59;;;;;;;12.65;8.23;;;;;;;;;;5073104;28;20031;-76
2021/08/26 02:12:25;;;;;;;11.00;7.68;;;;;;;;;;5072925;28;20388;-76
2021/08/26 02:14:51;;;;;;;11.60;8.18;;;;;;;;;;5073061;28;20116;-77
2021/08/26 02:17:17;;;;;;;10.95;7.57;;;;;;;;;;5072607;28;20028;-77
2021/08/26 02:19:43;;;;;;;10.20;8.13;;;;;;;;;;5072815;28;20480;-76
2021/08/26 02:22:09;;;;;;;12.32;9.00;;;;;;;;;;5072763;28;20029;-77
2021/08/26 02:24:36;;;;;;;10.00;6.85;;;;;;;;;;5071474;28;20539;-76
2021/08/26 02:27:02;;;;;;;9.13;6.20;;;;;;;;;;5071416;28;20381;-76
2021/08/26 02:29:28;;;;;;;8.88;6.47;;;;;;;;;;5072673;28;20020;-77
2021/08/26 02:31:54;;;;;;;11.43;7.47;;;;;;;;;;5073221;28;20441;-76
2021/08/26 02:34:20;;;;;;;12.30;8.40;;;;;;;;;;5076696;28;20021;-76
2021/08/26 02:36:46;;;;;;;14.85;8.85;;;;;;;;;;5076360;28;20100;-76
2021/08/26 02:39:12;;;;;;;9.90;7.72;;;;;;;;;;5076598;28;20055;-76
2021/08/26 02:41:38;;;;;;;11.23;8.70;;;;;;;;;;5076533;28;20038;-77
2021/08/26 02:44:04;;;;;;;14.13;9.07;;;;;;;;;;5076297;28;20024;-76
2021/08/26 02:46:30;;;;;;;12.15;9.25;;;;;;;;;;5076245;28;20028;-77
2021/08/26 02:48:56;;;;;;;13.18;8.85;;;;;;;;;;5076100;28;20032;-75
2021/08/26 02:51:22;;;;;;;10.13;8.15;;;;;;;;;;5076133;28;20035;-75
2021/08/26 02:53:48;;;;;;;11.23;8.00;;;;;;;;;;5076093;28;20021;-77
2021/08/26 02:56:14;;;;;;;11.73;7.90;;;;;;;;;;5076061;28;20020;-76
2021/08/26 02:58:41;;;;;;;12.15;7.90;;;;;;;;;;5076296;28;20023;-76
2021/08/26 03:01:07;;;;;;;10.85;7.70;;;;;;;;;;5075986;28;20033;-76
2021/08/26 03:03:33;;;;;;;9.27;7.03;;;;;;;;;;5076163;28;20074;-77
2021/08/26 03:05:59;;;;;;;9.82;6.80;;;;;;;;;;5075678;28;20476;-76
2021/08/26 03:08:25;;;;;;;10.77;8.23;;;;;;;;;;5076024;28;20017;-75
2021/08/26 03:10:51;;;;;;;11.48;7.95;;;;;;;;;;5075918;28;20381;-76
2021/08/26 03:13:17;;;;;;;10.30;8.40;;;;;;;;;;5075714;28;20422;-76
2021/08/26 03:15:43;;;;;;;9.50;7.75;;;;;;;;;;5075610;28;20060;-75
2021/08/26 03:18:09;;;;;;;11.43;8.52;;;;;;;;;;5074163;28;20067;-75
2021/08/26 03:20:38;;;;;;;10.95;8.07;;;;;;;;;;5076233;28;20035;-75
2021/08/26 03:23:04;;;;;;;10.00;7.97;;;;;;;;;;5074263;28;20029;-76
2021/08/26 03:25:30;;;;;;;10.82;7.32;;;;;;;;;;5075493;28;20103;-75
2021/08/26 03:27:56;;;;;;;9.80;7.88;;;;;;;;;;5075493;28;20482;-75
2021/08/26 03:30:23;;;;;;;10.23;7.28;;;;;;;;;;5075398;28;20025;-76
2021/08/26 03:32:49;;;;;;;13.52;8.52;;;;;;;;;;5075443;28;20365;-77
2021/08/26 03:35:15;;;;;;;10.50;7.78;;;;;;;;;;5075303;28;20035;-76
2021/08/26 03:37:41;;;;;;;9.38;7.32;;;;;;;;;;5074023;28;20029;-77
2021/08/26 03:40:07;;;;;;;10.80;8.05;;;;;;;;;;5074021;28;20034;-77
2021/08/26 03:42:33;;;;;;;8.45;6.68;;;;;;;;;;5075232;28;20387;-77
2021/08/26 03:44:59;;;;;;;10.32;8.30;;;;;;;;;;5074580;28;20024;-76
2021/08/26 03:47:25;;;;;;;11.25;8.88;;;;;;;;;;5075112;28;20027;-76
2021/08/26 03:49:51;;;;;;;12.73;8.85;;;;;;;;;;5074975;28;20123;-75
2021/08/26 03:52:17;;;;;;;11.88;8.45;;;;;;;;;;5075287;28;20052;-76
2021/08/26 03:54:43;;;;;;;11.40;7.43;;;;;;;;;;5074965;28;20024;-75
2021/08/26 03:57:09;;;;;;;11.77;8.30;;;;;;;;;;5074911;28;20377;-76
2021/08/26 03:59:35;;;;;;;12.05;8.82;;;;;;;;;;5073549;28;20024;-75
2021/08/26 04:02:01;;;;;;;11.98;8.40;;;;;;;;;;5074798;28;20028;-76
2021/08/26 04:04:27;;;;;;;14.32;7.38;;;;;;;;;;5074791;28;20063;-75
2021/08/26 04:06:53;;;;;;;11.38;7.75;;;;;;;;;;5073510;28;20056;-75
2021/08/26 04:09:19;;;;;;;13.13;8.38;;;;;;;;;;5074890;28;20061;-77
2021/08/26 04:11:45;;;;;;;11.60;8.05;;;;;;;;;;5074873;28;20557;-75
2021/08/26 04:14:11;;;;;;;14.15;8.82;;;;;;;;;;5075108;28;20020;-76
2021/08/26 04:16:37;;;;;;;12.05;8.75;;;;;;;;;;5074754;28;20025;-77
2021/08/26 04:19:03;;;;;;;10.50;8.10;;;;;;;;;;5074026;28;20052;-75
2021/08/26 04:21:29;;;;;;;13.63;9.65;;;;;;;;;;5074406;28;20028;-74
2021/08/26 04:23:55;;;;;;;10.90;7.78;;;;;;;;;;5074622;28;20397;-75
2021/08/26 04:26:21;;;;;;;11.02;7.60;;;;;;;;;;5074349;28;20074;-76
2021/08/26 04:28:47;;;;;;;10.60;7.90;;;;;;;;;;5074242;28;20032;-76
2021/08/26 04:31:13;;;;;;;10.35;7.85;;;;;;;;;;5074209;28;20358;-75
2021/08/26 04:33:39;;;;;;;10.18;7.95;;;;;;;;;;5074455;28;20059;-76
2021/08/26 04:36:05;;;;;;;10.00;7.85;;;;;;;;;;5072861;28;20044;-75
2021/08/26 04:38:32;;;;;;;9.60;7.18;;;;;;;;;;5074347;28;20047;-76
2021/08/26 04:40:58;;;;;;;10.13;7.18;;;;;;;;;;5074286;28;20029;-75
2021/08/26 04:43:24;;;;;;;10.70;8.43;;;;;;;;;;5073996;28;20439;-75
2021/08/26 04:45:50;;;;;;;8.68;7.35;;;;;;;;;;5074320;28;20417;-75
2021/08/26 04:48:16;;;;;;;11.70;7.95;;;;;;;;;;5074031;28;20112;-75
2021/08/26 04:50:42;;;;;;;11.77;7.95;;;;;;;;;;5074469;28;20107;-75
2021/08/26 04:53:08;;;;;;;10.32;7.95;;;;;;;;;;5073857;28;20111;-75
2021/08/26 04:55:34;;;;;;;13.70;8.52;;;;;;;;;;5072902;28;20074;-75
2021/08/26 04:58:00;;;;;;;11.13;8.23;;;;;;;;;;5073721;28;20028;-75
2021/08/26 05:00:26;;;;;;;10.70;8.23;;;;;;;;;;5073705;28;20025;-76
2021/08/26 05:02:52;;;;;;;10.02;7.65;;;;;;;;;;5073949;28;20434;-76
2021/08/26 05:05:18;;;;;;;12.02;8.85;;;;;;;;;;5072287;28;20495;-77
2021/08/26 05:07:44;;;;;;;13.73;7.82;;;;;;;;;;5073588;28;20029;-76
2021/08/26 05:10:10;;;;;;;12.40;8.20;;;;;;;;;;5073482;28;20473;-76
2021/08/26 05:12:36;;;;;;;12.43;7.25;;;;;;;;;;5073526;28;20100;-77
2021/08/26 05:15:02;;;;;;;11.02;7.38;;;;;;;;;;5073502;28;20025;-75
2021/08/26 05:17:28;;;;;;;9.13;7.25;;;;;;;;;;5073481;28;20400;-76
2021/08/26 05:19:54;;;;;;;9.80;7.72;;;;;;;;;;5073453;28;20024;-76
2021/08/26 05:22:20;;;;;;;11.55;8.43;;;;;;;;;;5073434;28;20034;-76
2021/08/26 05:24:48;;;;;;;11.73;9.02;;;;;;;;;;5072121;28;20021;-76
2021/08/26 05:27:14;;;;;;;10.75;7.65;;;;;;;;;;5073613;28;20107;-76
2021/08/26 05:29:40;;;;;;;10.63;7.90;;;;;;;;;;5073539;28;20016;-76
2021/08/26 05:32:07;;;;;;;13.02;8.13;;;;;;;;;;5073296;28;20536;-75
2021/08/26 05:34:33;;;;;;;11.20;8.13;;;;;;;;;;5073517;28;20135;-76
2021/08/26 05:36:59;;;;;;;12.60;8.63;;;;;;;;;;5073510;28;20055;-75
2021/08/26 05:39:25;;;;;;;11.90;7.25;;;;;;;;;;5071920;28;20068;-76
2021/08/26 05:41:51;;;;;;;10.38;7.43;;;;;;;;;;5073188;28;20165;-75
2021/08/26 05:44:17;;;;;;;12.38;8.13;;;;;;;;;;5073444;28;20056;-76
2021/08/26 05:46:44;;;;;;;10.98;8.15;;;;;;;;;;5073105;28;20036;-75
2021/08/26 05:49:10;;;;;;;12.48;8.45;;;;;;;;;;5073129;28;20029;-76
2021/08/26 05:51:36;;;;;;;12.63;7.53;;;;;;;;;;5071843;28;20058;-76
2021/08/26 05:54:02;;;;;;;11.90;7.70;;;;;;;;;;5073079;28;20484;-76
2021/08/26 05:56:28;;;;;;;10.75;8.15;;;;;;;;;;5073078;28;20021;-77
2021/08/26 05:58:54;;;;;;;9.77;7.63;;;;;;;;;;5073138;28;20430;-77
2021/08/26 06:01:21;;;;;;;9.57;6.95;;;;;;;;;;5073066;28;20062;-76
2021/08/26 06:03:48;;;;;;;11.18;7.88;;;;;;;;;;5073081;28;20024;-77
2021/08/26 06:06:13;;;;;;;10.85;8.23;;;;;;;;;;5073003;28;20024;-76
2021/08/26 06:08:39;;;;;;;10.00;7.22;;;;;;;;;;5076457;28;20473;-76
2021/08/26 06:11:05;;;;;;;10.43;7.93;;;;;;;;;;5076886;28;20082;-76
2021/08/26 06:13:31;;;;;;;12.48;8.07;;;;;;;;;;5076855;28;20036;-77
2021/08/26 06:15:57;;;;;;;12.25;7.45;;;;;;;;;;5077095;28;20017;-76
2021/08/26 06:18:23;;;;;;;11.18;7.43;;;;;;;;;;5076653;28;20052;-77
2021/08/26 06:20:49;;;;;;;11.88;7.10;;;;;;;;;;5076751;28;20496;-76
2021/08/26 06:23:16;;;;;;;11.63;7.72;;;;;;;;;;5077233;28;20031;-76
2021/08/26 06:25:42;;;;;;;10.02;7.22;;;;;;;;;;5076853;28;20499;-77
2021/08/26 06:28:08;;;;;;;10.30;7.82;;;;;;;;;;5076602;28;20062;-76
2021/08/26 06:30:34;;;;;;;13.32;8.05;;;;;;;;;;5076496;28;20039;-76
2021/08/26 06:33:00;;;;;;;10.93;7.70;;;;;;;;;;5076525;28;20074;-76
2021/08/26 06:35:26;;;;;;;11.57;7.57;;;;;;;;;;5077027;28;20029;-77
2021/08/26 06:37:52;;;;;;;14.30;7.95;;;;;;;;;;5076383;28;20032;-76
2021/08/26 06:40:18;;;;;;;11.05;8.10;;;;;;;;;;5076362;28;20029;-77
2021/08/26 06:42:44;;;;;;;10.65;7.45;;;;;;;;;;5076316;28;20029;-76
2021/08/26 06:45:11;;;;;;;10.30;7.20;;;;;;;;;;5076278;28;20029;-77
2021/08/26 06:47:37;;;;;;;10.60;7.22;;;;;;;;;;5076741;28;20024;-77
2021/08/26 06:50:03;;;;;;;10.60;7.38;;;;;;;;;;5076336;28;20384;-77
2021/08/26 06:52:29;;;;;;;10.85;7.35;;;;;;;;;;5076396;28;20016;-76
2021/08/26 06:54:55;;;;;;;10.68;7.03;;;;;;;;;;5076096;28;20358;-77
2021/08/26 06:57:21;;;;;;;10.90;6.95;;;;;;;;;;5076111;28;20029;-76
2021/08/26 06:59:47;;;;;;;12.10;7.85;;;;;;;;;;5076614;28;20103;-76
2021/08/26 07:02:13;;;;;;;10.60;7.30;;;;;;;;;;5076243;28;20358;-76
2021/08/26 07:04:39;;;;;;;12.85;8.43;;;;;;;;;;5075864;28;20034;-77
2021/08/26 07:07:05;;;;;;;12.70;8.10;;;;;;;;;;5076139;28;20427;-76
2021/08/26 07:09:31;;;;;;;11.90;7.47;;;;;;;;;;5075728;28;20044;-77
2021/08/26 07:11:57;;;;;;;13.45;8.05;;;;;;;;;;5075874;28;20056;-77
2021/08/26 07:14:23;;;;;;;12.57;7.15;;;;;;;;;;5075677;28;20469;-76
2021/08/26 07:16:49;;;;;;;13.40;7.88;;;;;;;;;;5075709;28;20020;-76
2021/08/26 07:19:15;;;;;;;10.90;7.68;;;;;;;;;;5074289;28;20618;-77
2021/08/26 07:21:41;;;;;;;9.35;7.13;;;;;;;;;;5075662;28;20474;-78
2021/08/26 07:24:08;;;;;;;12.27;7.93;;;;;;;;;;5075646;28;20077;-76
2021/08/26 07:26:34;;;;;;;10.88;7.28;;;;;;;;;;5075533;28;20028;-77
2021/08/26 07:29:00;;;;;;;11.00;7.43;;;;;;;;;;5074186;28;20506;-77
2021/08/26 07:31:26;;;;;;;10.85;6.80;;;;;;;;;;5074177;28;20028;-75
2021/08/26 07:33:52;;;;;;;10.48;7.00;;;;;;;;;;5075359;28;20051;-75
2021/08/26 07:36:18;;;;;;;10.43;6.35;;;;;;;;;;5075372;28;20476;-76
2021/08/26 07:38:44;;;;;;;12.10;7.03;;;;;;;;;;5074036;28;20123;-76
2021/08/26 07:41:11;;;;;;;11.98;6.45;;;;;;;;;;5075544;28;20095;-74
2021/08/26 07:43:37;;;;;;;8.85;6.32;;;;;;;;;;5075549;28;20032;-77
2021/08/26 07:46:03;;;;;;;9.05;6.13;;;;;;;;;;5075461;28;20032;-76
2021/08/26 07:48:29;;;;;;;12.18;6.00;;;;;;;;;;5075308;28;20024;-76
2021/08/26 07:51:02;;;;;;;9.43;5.82;;;;;;;;;;5074972;28;20024;-74
2021/08/26 07:53:28;;;;;;;9.68;5.63;;;;;;;;;;5075331;28;20021;-77
2021/08/26 07:55:54;;;;;;;8.57;5.25;;;;;;;;;;5074973;28;20046;-76
2021/08/26 07:58:20;;;;;;;7.32;4.80;;;;;;;;;;5074925;28;20024;-77
2021/08/26 08:00:46;;;;;;;8.60;4.75;;;;;;;;;;5074912;28;20029;-76
2021/08/26 08:03:12;;;;;;;6.95;4.53;;;;;;;;;;5074872;28;20039;-76
2021/08/26 08:05:38;;;;;;;7.68;4.32;;;;;;;;;;5075044;28;20024;-75
2021/08/26 08:08:04;;;;;;;9.30;5.07;;;;;;;;;;5074723;28;20388;-76
2021/08/26 08:10:30;;;;;;;10.07;5.22;;;;;;;;;;5074882;28;20029;-76
2021/08/26 08:12:56;;;;;;;7.28;5.07;;;;;;;;;;5074859;28;20557;-75
2021/08/26 08:15:22;;;;;;;9.38;5.63;;;;;;;;;;5074496;28;20071;-76
2021/08/26 08:17:48;;;;;;;9.25;4.85;;;;;;;;;;5074739;28;20055;-77
2021/08/26 08:20:14;;;;;;;6.50;4.70;;;;;;;;;;5074867;28;20025;-77
2021/08/26 08:22:40;;;;;;;6.85;4.22;;;;;;;;;;5074447;28;20056;-75
2021/08/26 08:25:07;;;;;;;8.70;4.55;;;;;;;;;;5074964;28;20031;-76
2021/08/26 08:27:33;;;;;;;7.88;4.68;;;;;;;;;;5074336;28;20086;-76
2021/08/26 08:29:59;;;;;;;6.10;4.22;;;;;;;;;;5073968;28;20067;-76
2021/08/26 08:32:25;;;;;;;7.00;4.20;;;;;;;;;;5074230;28;20025;-76
2021/08/26 08:34:51;;;;;;;10.45;4.50;;;;;;;;;;5074206;28;20564;-77
2021/08/26 08:37:17;;;;;;;6.22;4.10;;;;;;;;;;5074175;28;20070;-77
2021/08/26 08:39:43;;;;;;;6.95;4.15;;;;;;;;;;5074072;28;20027;-75
2021/08/26 08:42:09;;;;;;;6.82;4.20;;;;;;;;;;5074317;28;20103;-76
2021/08/26 08:44:35;;;;;;;8.00;4.18;;;;;;;;;;5074007;28;20564;-75
2021/08/26 08:47:02;;;;;;;7.07;4.13;;;;;;;;;;5075072;28;20028;-75
2021/08/26 08:49:29;;;;;;;11.82;3.95;;;;;;;;;;5074049;28;20036;-76
2021/08/26 08:51:56;;;;;;;7.75;3.97;;;;;;;;;;5074166;28;20021;-75
2021/08/26 08:54:23;;;;;;;5.90;3.55;;;;;;;;;;5073853;28;20028;-77
2021/08/26 08:56:49;;;;;;;5.78;3.30;;;;;;;;;;5074158;28;20035;-75
2021/08/26 08:59:15;;;;;;;5.15;2.83;;;;;;;;;;5074394;28;20085;-77
2021/08/26 09:01:50;;;;;;;4.45;3.10;;;;;;;;;;5073975;28;20024;-77
2021/08/26 09:04:16;;;;;;;6.45;3.60;;;;;;;;;;5074774;28;20037;-75
2021/08/26 09:06:43;;;;;;;5.60;3.08;;;;;;;;;;5074421;28;20489;-76
2021/08/26 09:09:09;;;;;;;7.03;3.03;;;;;;;;;;5073615;28;20445;-76
2021/08/26 09:11:36;;;;;;;4.43;3.00;;;;;;;;;;5073467;28;20025;-75
2021/08/26 09:14:09;;;;;;;5.10;2.88;;;;;;;;;;5073660;28;20510;-75
2021/08/26 09:16:40;;;;;;;6.43;2.80;;;;;;;;;;5074262;28;20025;-76
2021/08/26 09:19:16;;;;;;;5.78;2.80;;;;;;;;;;5073406;28;20531;-75
2021/08/26 09:21:42;;;;;;;5.85;3.00;;;;;;;;;;5073391;28;20476;-74
2021/08/26 09:24:08;;;;;;;5.97;2.85;;;;;;;;;;5074104;28;20017;-76
2021/08/26 09:26:34;;;;;;;5.95;3.00;;;;;;;;;;5073340;28;20021;-80
2021/08/26 09:29:01;;;;;;;6.22;2.65;;;;;;;;;;5073512;28;20021;-76
2021/08/26 09:31:28;;;;;;;5.03;2.70;;;;;;;;;;5073884;28;20473;-74
2021/08/26 09:33:58;;;;;;;6.60;3.00;;;;;;;;;;5073332;28;20431;-75
2021/08/26 09:36:24;;;;;;;5.32;3.08;;;;;;;;;;5073738;28;20017;-75
2021/08/26 09:39:01;;;;;;;4.70;2.60;;;;;;;;;;5073617;28;20044;-76
2021/08/26 09:41:45;;;;;;;5.85;3.20;;;;;;;;;;5073077;28;20025;-74
2021/08/26 09:44:13;;;;;;;6.68;2.90;;;;;;;;;;5073207;28;20032;-76
2021/08/26 09:46:39;;;;;;;4.90;2.72;;;;;;;;;;5073171;28;20024;-75
2021/08/26 09:49:10;;;;;;;6.97;2.72;;;;;;;;;;5072939;28;20023;-75
2021/08/26 09:51:38;;;;;;;3.88;2.40;;;;;;;;;;5073424;28;20100;-81
2021/08/26 09:54:05;;;;;;;3.80;2.45;;;;;;;;;;5072983;28;20020;-76
2021/08/26 09:56:40;;;;;;;5.18;2.83;;;;;;;;;;5073221;28;20024;-76
2021/08/26 09:59:06;;;;;;;3.80;2.78;;;;;;;;;;5073561;28;20044;-76
2021/08/26 10:01:36;;;;;;;3.88;2.28;;;;;;;;;;5074716;28;20032;-76
2021/08/26 10:04:03;;;;;;;4.57;2.33;;;;;;;;;;5072332;28;20028;-77
2021/08/26 10:06:29;;;;;;;4.20;2.42;;;;;;;;;;5073524;28;20023;-76
2021/08/26 10:08:57;;;;;;;4.50;2.20;;;;;;;;;;5071640;28;20012;-78
2021/08/26 10:11:23;;;;;;;2.85;2.20;;;;;;;;;;5073230;28;20066;-77
2021/08/26 10:13:50;;;;;;;4.00;2.28;;;;;;;;;;5072897;28;20145;-78
2021/08/26 10:16:16;;;;;;;5.75;2.20;;;;;;;;;;5072792;28;20031;-78
2021/08/26 10:18:43;;;;;;;4.07;2.15;;;;;;;;;;5071399;28;20052;-79
2021/08/26 10:21:10;;;;;;;4.93;2.50;;;;;;;;;;5072838;28;20048;-76
2021/08/26 10:23:37;;;;;;;4.28;2.10;;;;;;;;;;5072791;28;20103;-79
2021/08/26 10:26:05;;;;;;;4.03;2.25;;;;;;;;;;5072737;28;20029;-78
2021/08/26 10:28:33;;;;;;;6.03;2.60;;;;;;;;;;5072881;28;20025;-77
2021/08/26 10:30:59;;;;;;;4.63;2.30;;;;;;;;;;5072251;28;20029;-78
2021/08/26 10:33:29;;;;;;;4.25;2.25;;;;;;;;;;5070733;28;20078;-78
2021/08/26 10:35:59;;;;;;;2.83;2.00;;;;;;;;;;5071821;28;20103;-76
2021/08/26 10:38:28;;;;;;;4.28;2.00;;;;;;;;;;5070381;28;20033;-76
2021/08/26 10:40:54;;;;;;;4.72;2.00;;;;;;;;;;5071811;28;20045;-77
2021/08/26 10:43:37;;;;;;;4.85;2.25;;;;;;;;;;5071708;28;20036;-77
2021/08/26 10:46:05;;;;;;;3.25;1.85;;;;;;;;;;5072945;28;20380;-76
2021/08/26 10:48:31;;;;;;;2.30;1.70;;;;;;;;;;5072745;28;20048;-77
2021/08/26 10:51:03;;;;;;;3.78;2.17;;;;;;;;;;5072651;28;20096;-78
2021/08/26 10:53:30;;;;;;;3.20;1.90;;;;;;;;;;5072492;28;20029;-76
2021/08/26 10:55:58;;;;;;;3.90;2.10;;;;;;;;;;5075995;28;20021;-78
2021/08/26 10:58:24;;;;;;;3.67;2.08;;;;;;;;;;5075993;28;20021;-76
2021/08/26 11:00:50;;;;;;;4.68;2.47;;;;;;;;;;5076554;28;20024;-77
2021/08/26 11:03:34;;;;;;;4.50;2.42;;;;;;;;;;5076217;28;20081;-77
2021/08/26 11:06:01;;;;;;;5.22;2.58;;;;;;;;;;5076475;28;20059;-77
2021/08/26 11:08:27;;;;;;;5.45;2.97;;;;;;;;;;5075973;28;20484;-78
2021/08/26 11:10:53;;;;;;;4.35;2.92;;;;;;;;;;5075793;28;20396;-78
2021/08/26 11:13:28;;;;;;;5.03;2.95;;;;;;;;;;5074559;28;20055;-76
2021/08/26 11:15:55;;;;;;;6.47;3.30;;;;;;;;;;5075977;28;20024;-75
2021/08/26 11:18:28;;;;;;;6.40;3.58;;;;;;;;;;5075555;28;20523;-76
2021/08/26 11:20:54;;;;;;;7.82;4.75;;;;;;;;;;5075999;28;20027;-77
2021/08/26 11:23:40;;;;;;;5.38;3.63;;;;;;;;;;5075647;28;20040;-78
2021/08/26 11:26:25;;;;;;;7.97;4.10;;;;;;;;;;5075798;28;20388;-77
2021/08/26 11:28:51;;;;;;;6.75;4.00;;;;;;;;;;5075820;28;20047;-77
2021/08/26 11:31:17;;;;;;;6.55;3.75;;;;;;;;;;5075411;28;20472;-75
2021/08/26 11:33:43;;;;;;;7.88;4.28;;;;;;;;;;5075433;28;20016;-77
2021/08/26 11:36:14;;;;;;;5.95;3.47;;;;;;;;;;5075709;28;20024;-76
2021/08/26 11:38:50;;;;;;;5.43;3.92;;;;;;;;;;5075896;28;20381;-77
2021/08/26 11:41:17;;;;;;;7.57;4.22;;;;;;;;;;5075838;28;20540;-76
2021/08/26 11:43:43;;;;;;;6.43;3.72;;;;;;;;;;5075268;28;20029;-76
2021/08/26 11:46:13;;;;;;;8.00;3.90;;;;;;;;;;5075182;28;20032;-77
2021/08/26 11:48:50;;;;;;;10.20;4.35;;;;;;;;;;5075459;28;20028;-78
2021/08/26 11:51:20;;;;;;;7.75;4.00;;;;;;;;;;5075340;28;20025;-74
2021/08/26 11:53:46;;;;;;;9.98;4.75;;;;;;;;;;5075055;28;20050;-74
2021/08/26 11:56:12;;;;;;;6.22;4.00;;;;;;;;;;5075008;28;20029;-76
2021/08/26 11:58:38;;;;;;;6.53;4.15;;;;;;;;;;5074885;28;20027;-77
2021/08/26 12:01:04;;;;;;;7.57;4.03;;;;;;;;;;5075120;28;20027;-77
2021/08/26 12:03:30;;;;;;;6.28;3.85;;;;;;;;;;5073557;28;20036;-77
2021/08/26 12:05:56;;;;;;;8.13;4.80;;;;;;;;;;5074198;28;20021;-77
2021/08/26 12:08:22;;;;;;;6.63;4.20;;;;;;;;;;5075356;28;20028;-78
2021/08/26 12:10:48;;;;;;;8.82;4.00;;;;;;;;;;5074089;28;20081;-75
2021/08/26 12:13:15;;;;;;;8.07;4.95;;;;;;;;;;5074634;28;20028;-79
2021/08/26 12:15:46;;;;;;;7.47;4.70;;;;;;;;;;5074538;28;20025;-78
2021/08/26 12:18:16;;;;;;;8.48;5.00;;;;;;;;;;5074464;28;20052;-77
2021/08/26 12:20:42;;;;;;;7.32;4.93;;;;;;;;;;5073197;28;20481;-77
2021/08/26 12:23:08;;;;;;;8.27;4.30;;;;;;;;;;5073261;28;20032;-75
2021/08/26 12:25:37;;;;;;;7.35;5.05;;;;;;;;;;5074358;28;20074;-78
2021/08/26 12:28:04;;;;;;;8.57;4.70;;;;;;;;;;5074298;28;20032;-77
2021/08/26 12:30:39;;;;;;;8.68;4.38;;;;;;;;;;5074976;28;20021;-75
2021/08/26 12:33:15;;;;;;;7.75;5.00;;;;;;;;;;5073002;28;20021;-80
2021/08/26 12:35:44;;;;;;;6.90;4.60;;;;;;;;;;5074217;28;20025;-77
2021/08/26 12:38:10;;;;;;;8.00;4.93;;;;;;;;;;5073927;28;20103;-78
2021/08/26 12:40:48;;;;;;;7.60;4.57;;;;;;;;;;5074067;28;20021;-79
2021/08/26 12:43:14;;;;;;;6.93;4.15;;;;;;;;;;5074489;28;20028;-76
2021/08/26 12:45:40;;;;;;;9.65;4.80;;;;;;;;;;5074368;28;20029;-78
2021/08/26 12:48:42;;;;;;;10.40;4.40;;;;;;;;;;5074212;28;20039;-79
2021/08/26 12:51:10;;;;;;;9.52;4.68;;;;;;;;;;4992627;28;20514;-77
2021/08/26 12:53:37;;;;;;;7.50;5.05;;;;;;;;;;5058765;28;20519;-78
2021/08/26 12:56:03;;;;;;;9.85;5.07;;;;;;;;;;5074097;28;20024;-78
2021/08/26 12:58:29;;;;;;;7.55;4.80;;;;;;;;;;5074173;28;20035;-75
2021/08/26 13:00:58;;;;;;;7.65;5.10;;;;;;;;;;5073738;28;20434;-76
2021/08/26 13:03:42;;;;;;;8.25;5.47;;;;;;;;;;5074453;28;20036;-78
2021/08/26 13:06:08;;;;;;;7.10;4.72;;;;;;;;;;5074224;28;20023;-77
2021/08/26 13:08:45;;;;;;;7.72;4.47;;;;;;;;;;5072404;28;20389;-76
2021/08/26 13:11:14;;;;;;;6.85;4.40;;;;;;;;;;5073948;28;20021;-74
2021/08/26 13:13:44;;;;;;;9.47;4.80;;;;;;;;;;5072478;28;20481;-74
2021/08/26 13:16:10;;;;;;;7.57;4.47;;;;;;;;;;5073209;28;20735;-76
2021/08/26 13:18:36;;;;;;;7.35;3.90;;;;;;;;;;5073219;28;20127;-77
2021/08/26 13:21:02;;;;;;;7.13;4.05;;;;;;;;;;5073756;28;20064;-74
2021/08/26 13:23:28;;;;;;;7.43;4.47;;;;;;;;;;5073693;28;20103;-78
2021/08/26 13:25:54;;;;;;;8.00;4.78;;;;;;;;;;5073436;28;20365;-75
2021/08/26 13:28:20;;;;;;;8.02;4.93;;;;;;;;;;5073389;28;20032;-76
2021/08/26 13:30:46;;;;;;;8.88;4.85;;;;;;;;;;5073541;28;20039;-77
2021/08/26 13:33:12;;;;;;;7.97;5.13;;;;;;;;;;5073623;28;20020;-75
2021/08/26 13:35:38;;;;;;;7.95;5.30;;;;;;;;;;5073651;28;20070;-75
2021/08/26 13:38:04;;;;;;;8.05;5.05;;;;;;;;;;5072028;28;20388;-76
2021/08/26 13:40:30;;;;;;;11.38;4.93;;;;;;;;;;5073246;28;20024;-76
2021/08/26 13:42:56;;;;;;;7.93;4.28;;;;;;;;;;5073219;28;20040;-76
2021/08/26 13:45:22;;;;;;;8.40;5.18;;;;;;;;;;5073366;28;20028;-75
2021/08/26 13:47:50;;;;;;;7.68;5.38;;;;;;;;;;5073870;28;20082;-76
2021/08/26 13:50:16;;;;;;;8.45;5.10;;;;;;;;;;5073583;28;20030;-75
2021/08/26 13:52:42;;;;;;;7.63;4.90;;;;;;;;;;5073141;28;20033;-76
2021/08/26 13:55:08;;;;;;;8.23;4.78;;;;;;;;;;5073453;28;20031;-75
2021/08/26 13:57:34;;;;;;;7.40;4.88;;;;;;;;;;5071827;28;20021;-75
2021/08/26 14:00:00;;;;;;;9.77;5.38;;;;;;;;;;5073090;28;20036;-77
2021/08/26 14:02:26;;;;;;;7.32;5.00;;;;;;;;;;5073047;28;20024;-75
2021/08/26 14:04:52;;;;;;;8.13;4.90;;;;;;;;;;5073281;28;20162;-75
2021/08/26 14:07:18;;;;;;;11.57;5.15;;;;;;;;;;5073502;28;20046;-75
2021/08/26 14:09:46;;;;;;;8.07;4.95;;;;;;;;;;5072746;28;20042;-75
2021/08/26 14:12:12;;;;;;;6.38;4.30;;;;;;;;;;5072512;28;20154;-75
2021/08/26 14:14:38;;;;;;;6.63;4.68;;;;;;;;;;5073491;28;20025;-75
2021/08/26 14:17:04;;;;;;;8.00;4.85;;;;;;;;;;5072670;28;20469;-77
2021/08/26 14:19:30;;;;;;;6.45;4.35;;;;;;;;;;5073425;28;20042;-78
2021/08/26 14:21:56;;;;;;;9.50;4.80;;;;;;;;;;5072806;28;20087;-79
2021/08/26 14:24:22;;;;;;;8.35;4.35;;;;;;;;;;5073048;28;20103;-77
2021/08/26 14:26:48;;;;;;;6.57;4.32;;;;;;;;;;5072807;28;20028;-81
2021/08/26 14:29:14;;;;;;;7.10;4.53;;;;;;;;;;5075943;28;20029;-78
2021/08/26 14:31:41;;;;;;;7.88;4.88;;;;;;;;;;5077157;28;20024;-76
2021/08/26 14:34:07;;;;;;;8.23;4.80;;;;;;;;;;5077121;28;20055;-75
2021/08/26 14:36:33;;;;;;;8.77;4.75;;;;;;;;;;5075196;28;20028;-75
2021/08/26 14:38:59;;;;;;;8.38;4.57;;;;;;;;;;5076459;28;20127;-76
2021/08/26 14:41:25;;;;;;;7.35;4.15;;;;;;;;;;5076401;28;20122;-77